sensor_id;sensor_type;location;lat;lon;timestamp;temperature;humidity
6986;DHT22;3533;51.246;6.850;2023-12-29T00:01:51;19.60;46.20
6986;DHT22;3533;51.246;6.850;2023-12-29T00:04:17;19.60;46.20
6986;DHT22;3533;51.246;6.850;2023-12-29T00:06:42;19.60;46.30
6986;DHT22;3533;51.246;6.850;2023-12-29T00:09:08;19.60;46.20
6986;DHT22;3533;51.246;6.850;2023-12-29T00:11:34;19.60;46.30
6986;DHT22;3533;51.246;6.850;2023-12-29T00:13:59;19.60;46.20
6986;DHT22;3533;51.246;6.850;2023-12-29T00:16:26;19.50;46.10
6986;DHT22;3533;51.246;6.850;2023-12-29T00:18:52;19.50;46.10
6986;DHT22;3533;51.246;6.850;2023-12-29T00:21:18;19.50;46.10
6986;DHT22;3533;51.246;6.850;2023-12-29T00:23:43;19.60;46.20
6986;DHT22;3533;51.246;6.850;2023-12-29T00:26:09;19.60;46.20
6986;DHT22;3533;51.246;6.850;2023-12-29T00:28:34;19.50;46.10
6986;DHT22;3533;51.246;6.850;2023-12-29T00:31:02;19.60;46.30
6986;DHT22;3533;51.246;6.850;2023-12-29T00:33:27;19.50;46.10
6986;DHT22;3533;51.246;6.850;2023-12-29T00:35:53;19.50;46.10
6986;DHT22;3533;51.246;6.850;2023-12-29T00:38:18;19.60;46.30
6986;DHT22;3533;51.246;6.850;2023-12-29T00:40:44;19.50;46.20
6986;DHT22;3533;51.246;6.850;2023-12-29T00:43:09;19.50;46.10
6986;DHT22;3533;51.246;6.850;2023-12-29T00:45:35;19.50;46.10
6986;DHT22;3533;51.246;6.850;2023-12-29T00:48:02;19.50;46.10
6986;DHT22;3533;51.246;6.850;2023-12-29T00:50:27;19.50;46.10
6986;DHT22;3533;51.246;6.850;2023-12-29T00:52:53;19.50;46.10
6986;DHT22;3533;51.246;6.850;2023-12-29T00:55:19;19.50;46.20
6986;DHT22;3533;51.246;6.850;2023-12-29T00:57:45;19.50;46.10
6986;DHT22;3533;51.246;6.850;2023-12-29T01:00:12;19.50;46.10
6986;DHT22;3533;51.246;6.850;2023-12-29T01:02:38;19.50;46.90
6986;DHT22;3533;51.246;6.850;2023-12-29T01:05:04;19.50;46.10
6986;DHT22;3533;51.246;6.850;2023-12-29T01:07:30;19.50;46.10
6986;DHT22;3533;51.246;6.850;2023-12-29T01:09:55;19.50;46.20
6986;DHT22;3533;51.246;6.850;2023-12-29T01:12:21;19.50;46.20
6986;DHT22;3533;51.246;6.850;2023-12-29T01:14:46;19.50;46.10
6986;DHT22;3533;51.246;6.850;2023-12-29T01:17:12;19.50;46.10
6986;DHT22;3533;51.246;6.850;2023-12-29T01:19:37;19.50;46.10
6986;DHT22;3533;51.246;6.850;2023-12-29T01:22:03;19.50;46.10
6986;DHT22;3533;51.246;6.850;2023-12-29T01:24:29;19.50;46.20
6986;DHT22;3533;51.246;6.850;2023-12-29T01:26:54;19.50;46.10
6986;DHT22;3533;51.246;6.850;2023-12-29T01:29:20;19.50;46.10
6986;DHT22;3533;51.246;6.850;2023-12-29T01:31:45;19.50;46.10
6986;DHT22;3533;51.246;6.850;2023-12-29T01:34:11;19.50;46.20
6986;DHT22;3533;51.246;6.850;2023-12-29T01:36:36;19.50;46.10
6986;DHT22;3533;51.246;6.850;2023-12-29T01:39:02;19.50;46.20
6986;DHT22;3533;51.246;6.850;2023-12-29T01:41:29;19.50;46.10
6986;DHT22;3533;51.246;6.850;2023-12-29T01:46:25;19.50;46.10
6986;DHT22;3533;51.246;6.850;2023-12-29T01:48:51;19.50;46.10
6986;DHT22;3533;51.246;6.850;2023-12-29T01:51:17;19.50;46.10
6986;DHT22;3533;51.246;6.850;2023-12-29T01:53:44;19.50;46.10
6986;DHT22;3533;51.246;6.850;2023-12-29T01:56:10;19.50;46.10
6986;DHT22;3533;51.246;6.850;2023-12-29T01:58:36;19.50;46.10
6986;DHT22;3533;51.246;6.850;2023-12-29T02:01:03;19.50;46.20
6986;DHT22;3533;51.246;6.850;2023-12-29T02:03:30;19.50;46.10
6986;DHT22;3533;51.246;6.850;2023-12-29T02:05:56;19.50;46.20
6986;DHT22;3533;51.246;6.850;2023-12-29T02:08:22;19.50;46.10
6986;DHT22;3533;51.246;6.850;2023-12-29T02:10:48;19.50;46.10
6986;DHT22;3533;51.246;6.850;2023-12-29T02:13:14;19.50;46.10
6986;DHT22;3533;51.246;6.850;2023-12-29T02:15:40;19.50;47.10
6986;DHT22;3533;51.246;6.850;2023-12-29T02:18:14;19.50;46.10
6986;DHT22;3533;51.246;6.850;2023-12-29T02:20:41;19.50;46.10
6986;DHT22;3533;51.246;6.850;2023-12-29T02:23:07;19.50;46.20
6986;DHT22;3533;51.246;6.850;2023-12-29T02:25:34;19.50;46.10
6986;DHT22;3533;51.246;6.850;2023-12-29T02:28:07;19.50;46.10
6986;DHT22;3533;51.246;6.850;2023-12-29T02:30:46;19.50;46.20
6986;DHT22;3533;51.246;6.850;2023-12-29T02:33:19;19.50;46.10
6986;DHT22;3533;51.246;6.850;2023-12-29T02:35:45;19.50;46.10
6986;DHT22;3533;51.246;6.850;2023-12-29T02:38:11;19.50;46.10
6986;DHT22;3533;51.246;6.850;2023-12-29T02:40:38;19.50;46.10
6986;DHT22;3533;51.246;6.850;2023-12-29T02:43:03;19.50;46.10
6986;DHT22;3533;51.246;6.850;2023-12-29T02:45:29;19.50;46.20
6986;DHT22;3533;51.246;6.850;2023-12-29T02:47:55;19.50;46.20
6986;DHT22;3533;51.246;6.850;2023-12-29T02:50:20;19.50;46.10
6986;DHT22;3533;51.246;6.850;2023-12-29T02:52:46;19.50;46.10
6986;DHT22;3533;51.246;6.850;2023-12-29T02:55:11;19.50;46.10
6986;DHT22;3533;51.246;6.850;2023-12-29T02:57:38;19.50;46.00
6986;DHT22;3533;51.246;6.850;2023-12-29T03:00:04;19.50;46.10
6986;DHT22;3533;51.246;6.850;2023-12-29T03:02:30;19.50;46.00
6986;DHT22;3533;51.246;6.850;2023-12-29T03:04:56;19.50;46.10
6986;DHT22;3533;51.246;6.850;2023-12-29T03:07:21;19.50;46.10
6986;DHT22;3533;51.246;6.850;2023-12-29T03:09:47;19.50;46.00
6986;DHT22;3533;51.246;6.850;2023-12-29T03:12:15;19.50;46.10
6986;DHT22;3533;51.246;6.850;2023-12-29T03:14:41;19.50;46.00
6986;DHT22;3533;51.246;6.850;2023-12-29T03:17:06;19.50;46.10
6986;DHT22;3533;51.246;6.850;2023-12-29T03:19:32;19.50;46.10
6986;DHT22;3533;51.246;6.850;2023-12-29T03:21:57;19.50;46.10
6986;DHT22;3533;51.246;6.850;2023-12-29T03:24:23;19.50;46.00
6986;DHT22;3533;51.246;6.850;2023-12-29T03:26:49;19.50;46.00
6986;DHT22;3533;51.246;6.850;2023-12-29T03:29:14;19.50;46.00
6986;DHT22;3533;51.246;6.850;2023-12-29T03:31:40;19.50;46.00
6986;DHT22;3533;51.246;6.850;2023-12-29T03:34:06;19.50;46.10
6986;DHT22;3533;51.246;6.850;2023-12-29T03:36:32;19.50;46.10
6986;DHT22;3533;51.246;6.850;2023-12-29T03:38:57;19.50;46.10
6986;DHT22;3533;51.246;6.850;2023-12-29T03:41:23;19.50;46.10
6986;DHT22;3533;51.246;6.850;2023-12-29T03:43:49;19.50;46.10
6986;DHT22;3533;51.246;6.850;2023-12-29T03:46:18;19.50;46.10
6986;DHT22;3533;51.246;6.850;2023-12-29T03:48:44;19.50;46.00
6986;DHT22;3533;51.246;6.850;2023-12-29T03:51:09;19.50;46.00
6986;DHT22;3533;51.246;6.850;2023-12-29T03:53:35;19.50;46.10
6986;DHT22;3533;51.246;6.850;2023-12-29T03:56:04;19.50;46.10
6986;DHT22;3533;51.246;6.850;2023-12-29T03:58:30;19.50;46.00
6986;DHT22;3533;51.246;6.850;2023-12-29T04:00:56;19.50;46.00
6986;DHT22;3533;51.246;6.850;2023-12-29T04:03:21;19.50;46.00
6986;DHT22;3533;51.246;6.850;2023-12-29T04:05:47;19.50;46.00
6986;DHT22;3533;51.246;6.850;2023-12-29T04:08:13;19.50;46.00
6986;DHT22;3533;51.246;6.850;2023-12-29T04:10:38;19.50;46.00
6986;DHT22;3533;51.246;6.850;2023-12-29T04:13:04;19.50;46.10
6986;DHT22;3533;51.246;6.850;2023-12-29T04:15:30;19.50;46.00
6986;DHT22;3533;51.246;6.850;2023-12-29T04:17:55;19.50;46.00
6986;DHT22;3533;51.246;6.850;2023-12-29T04:20:21;19.40;46.00
6986;DHT22;3533;51.246;6.850;2023-12-29T04:22:47;19.50;46.00
6986;DHT22;3533;51.246;6.850;2023-12-29T04:25:12;19.50;46.00
6986;DHT22;3533;51.246;6.850;2023-12-29T04:27:39;19.50;46.00
6986;DHT22;3533;51.246;6.850;2023-12-29T04:30:05;19.50;46.00
6986;DHT22;3533;51.246;6.850;2023-12-29T04:32:31;19.50;46.00
6986;DHT22;3533;51.246;6.850;2023-12-29T04:34:57;19.50;46.00
6986;DHT22;3533;51.246;6.850;2023-12-29T04:37:22;19.40;46.00
6986;DHT22;3533;51.246;6.850;2023-12-29T04:39:48;19.50;46.00
6986;DHT22;3533;51.246;6.850;2023-12-29T04:42:13;19.50;46.00
6986;DHT22;3533;51.246;6.850;2023-12-29T04:44:39;19.50;46.00
6986;DHT22;3533;51.246;6.850;2023-12-29T04:47:04;19.50;46.00
6986;DHT22;3533;51.246;6.850;2023-12-29T04:49:30;19.50;46.00
6986;DHT22;3533;51.246;6.850;2023-12-29T04:51:55;19.50;46.00
6986;DHT22;3533;51.246;6.850;2023-12-29T04:54:21;19.50;45.90
6986;DHT22;3533;51.246;6.850;2023-12-29T04:56:47;19.50;45.90
6986;DHT22;3533;51.246;6.850;2023-12-29T04:59:12;19.50;46.00
6986;DHT22;3533;51.246;6.850;2023-12-29T05:01:38;19.50;45.90
6986;DHT22;3533;51.246;6.850;2023-12-29T05:04:03;19.50;45.90
6986;DHT22;3533;51.246;6.850;2023-12-29T05:06:29;19.50;45.90
6986;DHT22;3533;51.246;6.850;2023-12-29T05:08:54;19.50;45.90
6986;DHT22;3533;51.246;6.850;2023-12-29T05:11:20;19.50;45.90
6986;DHT22;3533;51.246;6.850;2023-12-29T05:13:45;19.50;45.90
6986;DHT22;3533;51.246;6.850;2023-12-29T05:16:11;19.50;45.80
6986;DHT22;3533;51.246;6.850;2023-12-29T05:18:36;19.50;45.80
6986;DHT22;3533;51.246;6.850;2023-12-29T05:21:02;19.50;45.80
6986;DHT22;3533;51.246;6.850;2023-12-29T05:23:27;19.50;45.90
6986;DHT22;3533;51.246;6.850;2023-12-29T05:25:53;19.50;45.80
6986;DHT22;3533;51.246;6.850;2023-12-29T05:28:18;19.50;45.80
6986;DHT22;3533;51.246;6.850;2023-12-29T05:30:44;19.50;45.90
6986;DHT22;3533;51.246;6.850;2023-12-29T05:33:10;19.50;45.80
6986;DHT22;3533;51.246;6.850;2023-12-29T05:35:35;19.50;45.80
6986;DHT22;3533;51.246;6.850;2023-12-29T05:38:01;19.50;45.80
6986;DHT22;3533;51.246;6.850;2023-12-29T05:40:26;19.50;45.80
6986;DHT22;3533;51.246;6.850;2023-12-29T05:42:52;19.50;45.80
6986;DHT22;3533;51.246;6.850;2023-12-29T05:45:17;19.60;45.90
6986;DHT22;3533;51.246;6.850;2023-12-29T05:47:43;19.60;45.90
6986;DHT22;3533;51.246;6.850;2023-12-29T05:50:09;19.60;45.90
6986;DHT22;3533;51.246;6.850;2023-12-29T05:52:34;19.50;45.80
6986;DHT22;3533;51.246;6.850;2023-12-29T05:55:00;19.60;45.90
6986;DHT22;3533;51.246;6.850;2023-12-29T05:57:25;19.60;45.80
6986;DHT22;3533;51.246;6.850;2023-12-29T05:59:52;19.60;45.90
6986;DHT22;3533;51.246;6.850;2023-12-29T06:02:17;19.60;45.90
6986;DHT22;3533;51.246;6.850;2023-12-29T06:04:43;19.60;45.80
6986;DHT22;3533;51.246;6.850;2023-12-29T06:07:08;19.60;45.90
6986;DHT22;3533;51.246;6.850;2023-12-29T06:09:34;19.60;45.80
6986;DHT22;3533;51.246;6.850;2023-12-29T06:12:00;19.60;45.80
6986;DHT22;3533;51.246;6.850;2023-12-29T06:14:25;19.60;45.80
6986;DHT22;3533;51.246;6.850;2023-12-29T06:16:52;19.60;45.90
6986;DHT22;3533;51.246;6.850;2023-12-29T06:19:18;19.60;45.80
6986;DHT22;3533;51.246;6.850;2023-12-29T06:21:44;19.60;45.80
6986;DHT22;3533;51.246;6.850;2023-12-29T06:24:12;19.60;45.70
6986;DHT22;3533;51.246;6.850;2023-12-29T06:26:38;19.60;45.70
6986;DHT22;3533;51.246;6.850;2023-12-29T06:29:09;19.60;45.70
6986;DHT22;3533;51.246;6.850;2023-12-29T06:31:34;19.60;45.70
6986;DHT22;3533;51.246;6.850;2023-12-29T06:34:00;19.60;45.70
6986;DHT22;3533;51.246;6.850;2023-12-29T06:36:26;19.60;45.70
6986;DHT22;3533;51.246;6.850;2023-12-29T06:38:51;19.60;45.70
6986;DHT22;3533;51.246;6.850;2023-12-29T06:41:18;19.60;45.70
6986;DHT22;3533;51.246;6.850;2023-12-29T06:43:44;19.60;45.70
6986;DHT22;3533;51.246;6.850;2023-12-29T06:46:09;19.60;45.70
6986;DHT22;3533;51.246;6.850;2023-12-29T06:48:36;19.60;45.70
6986;DHT22;3533;51.246;6.850;2023-12-29T06:51:01;19.60;45.70
6986;DHT22;3533;51.246;6.850;2023-12-29T06:53:27;19.60;45.70
6986;DHT22;3533;51.246;6.850;2023-12-29T06:55:52;19.60;45.70
6986;DHT22;3533;51.246;6.850;2023-12-29T06:58:18;19.60;45.70
6986;DHT22;3533;51.246;6.850;2023-12-29T07:00:44;19.60;45.70
6986;DHT22;3533;51.246;6.850;2023-12-29T07:03:12;19.60;45.70
6986;DHT22;3533;51.246;6.850;2023-12-29T07:05:38;19.60;45.60
6986;DHT22;3533;51.246;6.850;2023-12-29T07:08:04;19.60;45.60
6986;DHT22;3533;51.246;6.850;2023-12-29T07:10:29;19.60;45.60
6986;DHT22;3533;51.246;6.850;2023-12-29T07:12:55;19.60;45.70
6986;DHT22;3533;51.246;6.850;2023-12-29T07:15:20;19.60;45.70
6986;DHT22;3533;51.246;6.850;2023-12-29T07:17:48;19.60;45.70
6986;DHT22;3533;51.246;6.850;2023-12-29T07:20:13;19.60;45.70
6986;DHT22;3533;51.246;6.850;2023-12-29T07:22:39;19.60;45.70
6986;DHT22;3533;51.246;6.850;2023-12-29T07:25:04;19.60;45.60
6986;DHT22;3533;51.246;6.850;2023-12-29T07:27:30;19.60;45.70
6986;DHT22;3533;51.246;6.850;2023-12-29T07:29:56;19.60;45.70
6986;DHT22;3533;51.246;6.850;2023-12-29T07:32:22;19.60;45.70
6986;DHT22;3533;51.246;6.850;2023-12-29T07:34:48;19.60;45.70
6986;DHT22;3533;51.246;6.850;2023-12-29T07:37:15;19.60;45.70
6986;DHT22;3533;51.246;6.850;2023-12-29T07:39:41;19.60;45.70
6986;DHT22;3533;51.246;6.850;2023-12-29T07:42:06;19.60;45.70
6986;DHT22;3533;51.246;6.850;2023-12-29T07:44:32;19.60;45.70
6986;DHT22;3533;51.246;6.850;2023-12-29T07:46:58;19.60;45.70
6986;DHT22;3533;51.246;6.850;2023-12-29T07:49:23;19.60;45.70
6986;DHT22;3533;51.246;6.850;2023-12-29T07:51:49;19.60;45.70
6986;DHT22;3533;51.246;6.850;2023-12-29T07:54:14;19.60;45.70
6986;DHT22;3533;51.246;6.850;2023-12-29T07:56:40;19.60;45.60
6986;DHT22;3533;51.246;6.850;2023-12-29T07:59:06;19.60;45.70
6986;DHT22;3533;51.246;6.850;2023-12-29T08:01:32;19.60;45.70
6986;DHT22;3533;51.246;6.850;2023-12-29T08:03:57;19.60;45.70
6986;DHT22;3533;51.246;6.850;2023-12-29T08:06:23;19.60;45.60
6986;DHT22;3533;51.246;6.850;2023-12-29T08:08:48;19.60;45.70
6986;DHT22;3533;51.246;6.850;2023-12-29T08:11:17;19.60;45.70
6986;DHT22;3533;51.246;6.850;2023-12-29T08:13:44;19.60;45.70
6986;DHT22;3533;51.246;6.850;2023-12-29T08:16:10;19.60;45.70
6986;DHT22;3533;51.246;6.850;2023-12-29T08:18:36;19.60;45.70
6986;DHT22;3533;51.246;6.850;2023-12-29T08:21:02;19.60;45.70
6986;DHT22;3533;51.246;6.850;2023-12-29T08:23:28;19.60;45.70
6986;DHT22;3533;51.246;6.850;2023-12-29T08:25:53;19.60;45.70
6986;DHT22;3533;51.246;6.850;2023-12-29T08:28:19;19.60;45.70
6986;DHT22;3533;51.246;6.850;2023-12-29T08:30:44;19.60;45.70
6986;DHT22;3533;51.246;6.850;2023-12-29T08:33:13;19.60;45.70
6986;DHT22;3533;51.246;6.850;2023-12-29T08:35:42;19.60;45.70
6986;DHT22;3533;51.246;6.850;2023-12-29T08:38:07;19.60;45.70
6986;DHT22;3533;51.246;6.850;2023-12-29T08:40:33;19.60;45.80
6986;DHT22;3533;51.246;6.850;2023-12-29T08:42:58;19.60;46.60
6986;DHT22;3533;51.246;6.850;2023-12-29T08:45:25;19.60;45.70
6986;DHT22;3533;51.246;6.850;2023-12-29T08:47:50;19.60;45.80
6986;DHT22;3533;51.246;6.850;2023-12-29T08:50:16;19.60;45.70
6986;DHT22;3533;51.246;6.850;2023-12-29T08:52:42;19.60;45.80
6986;DHT22;3533;51.246;6.850;2023-12-29T08:55:07;19.60;45.80
6986;DHT22;3533;51.246;6.850;2023-12-29T08:57:33;19.60;45.80
6986;DHT22;3533;51.246;6.850;2023-12-29T08:59:59;19.60;45.80
6986;DHT22;3533;51.246;6.850;2023-12-29T09:02:25;19.60;45.90
6986;DHT22;3533;51.246;6.850;2023-12-29T09:04:50;19.60;45.80
6986;DHT22;3533;51.246;6.850;2023-12-29T09:07:16;19.60;45.80
6986;DHT22;3533;51.246;6.850;2023-12-29T09:09:42;19.60;45.80
6986;DHT22;3533;51.246;6.850;2023-12-29T09:12:07;19.50;45.70
6986;DHT22;3533;51.246;6.850;2023-12-29T09:14:33;19.50;45.70
6986;DHT22;3533;51.246;6.850;2023-12-29T09:17:00;19.60;45.80
6986;DHT22;3533;51.246;6.850;2023-12-29T09:19:25;19.60;45.90
6986;DHT22;3533;51.246;6.850;2023-12-29T09:21:51;19.60;45.90
6986;DHT22;3533;51.246;6.850;2023-12-29T09:24:17;19.60;45.90
6986;DHT22;3533;51.246;6.850;2023-12-29T09:26:42;19.50;45.80
6986;DHT22;3533;51.246;6.850;2023-12-29T09:29:08;19.60;45.90
6986;DHT22;3533;51.246;6.850;2023-12-29T09:31:33;19.60;45.90
6986;DHT22;3533;51.246;6.850;2023-12-29T09:33:59;19.50;45.80
6986;DHT22;3533;51.246;6.850;2023-12-29T09:36:25;19.60;46.00
6986;DHT22;3533;51.246;6.850;2023-12-29T09:38:51;19.60;46.00
6986;DHT22;3533;51.246;6.850;2023-12-29T09:41:18;19.60;46.00
6986;DHT22;3533;51.246;6.850;2023-12-29T09:43:48;19.50;45.80
6986;DHT22;3533;51.246;6.850;2023-12-29T09:46:16;19.60;46.00
6986;DHT22;3533;51.246;6.850;2023-12-29T09:48:47;19.60;45.90
6986;DHT22;3533;51.246;6.850;2023-12-29T09:51:15;19.60;46.00
6986;DHT22;3533;51.246;6.850;2023-12-29T09:53:41;19.50;45.90
6986;DHT22;3533;51.246;6.850;2023-12-29T09:56:08;19.50;45.90
6986;DHT22;3533;51.246;6.850;2023-12-29T09:58:35;19.60;46.00
6986;DHT22;3533;51.246;6.850;2023-12-29T10:01:06;19.50;45.90
6986;DHT22;3533;51.246;6.850;2023-12-29T10:03:32;19.60;46.10
6986;DHT22;3533;51.246;6.850;2023-12-29T10:06:00;19.60;46.10
6986;DHT22;3533;51.246;6.850;2023-12-29T10:08:27;19.50;46.00
6986;DHT22;3533;51.246;6.850;2023-12-29T10:10:55;19.60;46.10
6986;DHT22;3533;51.246;6.850;2023-12-29T10:13:23;19.50;46.00
6986;DHT22;3533;51.246;6.850;2023-12-29T10:16:03;19.60;46.10
6986;DHT22;3533;51.246;6.850;2023-12-29T10:18:55;19.60;46.10
6986;DHT22;3533;51.246;6.850;2023-12-29T10:24:18;19.60;46.10
6986;DHT22;3533;51.246;6.850;2023-12-29T10:26:44;19.50;46.00
6986;DHT22;3533;51.246;6.850;2023-12-29T10:29:11;19.50;46.00
6986;DHT22;3533;51.246;6.850;2023-12-29T10:31:38;19.50;46.00
6986;DHT22;3533;51.246;6.850;2023-12-29T10:34:23;19.50;46.00
6986;DHT22;3533;51.246;6.850;2023-12-29T10:37:00;19.50;46.00
6986;DHT22;3533;51.246;6.850;2023-12-29T10:39:29;19.50;46.10
6986;DHT22;3533;51.246;6.850;2023-12-29T10:42:04;19.50;46.10
6986;DHT22;3533;51.246;6.850;2023-12-29T10:44:34;19.50;46.10
6986;DHT22;3533;51.246;6.850;2023-12-29T10:47:11;19.50;46.10
6986;DHT22;3533;51.246;6.850;2023-12-29T10:49:37;19.50;46.10
6986;DHT22;3533;51.246;6.850;2023-12-29T10:52:23;19.60;46.30
6986;DHT22;3533;51.246;6.850;2023-12-29T10:54:49;19.60;46.20
6986;DHT22;3533;51.246;6.850;2023-12-29T10:57:14;19.60;46.20
6986;DHT22;3533;51.246;6.850;2023-12-29T10:59:40;19.60;46.20
6986;DHT22;3533;51.246;6.850;2023-12-29T11:02:06;19.60;46.20
6986;DHT22;3533;51.246;6.850;2023-12-29T11:04:33;19.50;46.10
6986;DHT22;3533;51.246;6.850;2023-12-29T11:06:59;19.60;46.30
6986;DHT22;3533;51.246;6.850;2023-12-29T11:09:32;19.60;46.20
6986;DHT22;3533;51.246;6.850;2023-12-29T11:12:00;19.50;46.10
6986;DHT22;3533;51.246;6.850;2023-12-29T11:14:26;19.50;46.20
6986;DHT22;3533;51.246;6.850;2023-12-29T11:16:54;19.50;46.20
6986;DHT22;3533;51.246;6.850;2023-12-29T11:19:21;19.60;46.30
6986;DHT22;3533;51.246;6.850;2023-12-29T11:21:49;19.50;46.20
6986;DHT22;3533;51.246;6.850;2023-12-29T11:24:16;19.60;46.30
6986;DHT22;3533;51.246;6.850;2023-12-29T11:26:43;19.60;46.30
6986;DHT22;3533;51.246;6.850;2023-12-29T11:29:09;19.60;46.30
6986;DHT22;3533;51.246;6.850;2023-12-29T11:31:37;19.60;46.30
6986;DHT22;3533;51.246;6.850;2023-12-29T11:34:18;19.60;46.30
6986;DHT22;3533;51.246;6.850;2023-12-29T11:36:46;19.60;46.20
6986;DHT22;3533;51.246;6.850;2023-12-29T11:39:24;19.60;46.30
6986;DHT22;3533;51.246;6.850;2023-12-29T11:44:26;19.50;46.20
6986;DHT22;3533;51.246;6.850;2023-12-29T11:46:56;19.60;46.30
6986;DHT22;3533;51.246;6.850;2023-12-29T11:49:22;19.60;46.30
6986;DHT22;3533;51.246;6.850;2023-12-29T11:51:49;19.60;46.30
6986;DHT22;3533;51.246;6.850;2023-12-29T11:54:25;19.60;46.30
6986;DHT22;3533;51.246;6.850;2023-12-29T11:56:52;19.50;46.20
6986;DHT22;3533;51.246;6.850;2023-12-29T11:59:27;19.50;46.20
6986;DHT22;3533;51.246;6.850;2023-12-29T12:01:57;19.60;46.40
6986;DHT22;3533;51.246;6.850;2023-12-29T12:04:35;19.50;46.20
6986;DHT22;3533;51.246;6.850;2023-12-29T12:09:49;19.50;46.20
6986;DHT22;3533;51.246;6.850;2023-12-29T12:12:41;19.60;46.30
6986;DHT22;3533;51.246;6.850;2023-12-29T12:17:58;19.60;46.90
6986;DHT22;3533;51.246;6.850;2023-12-29T12:20:25;19.50;46.30
6986;DHT22;3533;51.246;6.850;2023-12-29T12:23:11;19.60;46.40
6986;DHT22;3533;51.246;6.850;2023-12-29T12:25:40;19.60;47.20
6986;DHT22;3533;51.246;6.850;2023-12-29T12:28:06;19.50;46.30
6986;DHT22;3533;51.246;6.850;2023-12-29T12:30:35;19.60;46.50
6986;DHT22;3533;51.246;6.850;2023-12-29T12:33:02;19.60;46.40
6986;DHT22;3533;51.246;6.850;2023-12-29T12:35:28;19.60;46.40
6986;DHT22;3533;51.246;6.850;2023-12-29T12:40:32;19.60;46.40
6986;DHT22;3533;51.246;6.850;2023-12-29T12:42:58;19.60;46.40
6986;DHT22;3533;51.246;6.850;2023-12-29T12:45:26;19.60;46.50
6986;DHT22;3533;51.246;6.850;2023-12-29T12:48:00;19.60;46.50
6986;DHT22;3533;51.246;6.850;2023-12-29T12:50:27;19.60;46.50
6986;DHT22;3533;51.246;6.850;2023-12-29T12:52:53;19.60;46.50
6986;DHT22;3533;51.246;6.850;2023-12-29T12:55:18;19.60;46.60
6986;DHT22;3533;51.246;6.850;2023-12-29T12:57:45;19.60;46.50
6986;DHT22;3533;51.246;6.850;2023-12-29T13:00:11;19.60;46.60
6986;DHT22;3533;51.246;6.850;2023-12-29T13:02:37;19.60;46.60
6986;DHT22;3533;51.246;6.850;2023-12-29T13:05:03;19.60;46.60
6986;DHT22;3533;51.246;6.850;2023-12-29T13:07:33;19.60;46.60
6986;DHT22;3533;51.246;6.850;2023-12-29T13:10:01;19.60;46.80
6986;DHT22;3533;51.246;6.850;2023-12-29T13:12:27;19.60;46.60
6986;DHT22;3533;51.246;6.850;2023-12-29T13:14:52;19.60;46.60
6986;DHT22;3533;51.246;6.850;2023-12-29T13:17:19;19.60;46.60
6986;DHT22;3533;51.246;6.850;2023-12-29T13:19:56;19.60;46.70
6986;DHT22;3533;51.246;6.850;2023-12-29T13:22:23;19.60;46.60
6986;DHT22;3533;51.246;6.850;2023-12-29T13:24:48;19.60;46.70
6986;DHT22;3533;51.246;6.850;2023-12-29T13:27:14;19.60;46.70
6986;DHT22;3533;51.246;6.850;2023-12-29T13:29:41;19.60;46.70
6986;DHT22;3533;51.246;6.850;2023-12-29T13:35:04;19.60;46.80
6986;DHT22;3533;51.246;6.850;2023-12-29T13:43:08;19.60;46.80
6986;DHT22;3533;51.246;6.850;2023-12-29T13:45:35;19.60;46.90
6986;DHT22;3533;51.246;6.850;2023-12-29T13:48:02;19.60;46.90
6986;DHT22;3533;51.246;6.850;2023-12-29T13:50:29;19.60;46.90
6986;DHT22;3533;51.246;6.850;2023-12-29T13:52:55;19.60;46.90
6986;DHT22;3533;51.246;6.850;2023-12-29T13:55:22;19.70;47.00
6986;DHT22;3533;51.246;6.850;2023-12-29T13:57:48;19.60;46.90
6986;DHT22;3533;51.246;6.850;2023-12-29T14:00:15;19.60;46.90
6986;DHT22;3533;51.246;6.850;2023-12-29T14:02:40;19.60;46.90
6986;DHT22;3533;51.246;6.850;2023-12-29T14:05:23;19.60;47.00
6986;DHT22;3533;51.246;6.850;2023-12-29T14:10:33;19.70;47.00
6986;DHT22;3533;51.246;6.850;2023-12-29T14:13:16;19.60;46.90
6986;DHT22;3533;51.246;6.850;2023-12-29T14:15:43;19.60;46.90
6986;DHT22;3533;51.246;6.850;2023-12-29T14:20:37;19.60;47.00
6986;DHT22;3533;51.246;6.850;2023-12-29T14:23:03;19.60;47.00
6986;DHT22;3533;51.246;6.850;2023-12-29T14:25:31;19.60;47.00
6986;DHT22;3533;51.246;6.850;2023-12-29T14:27:59;19.60;47.00
6986;DHT22;3533;51.246;6.850;2023-12-29T14:30:25;19.60;47.00
6986;DHT22;3533;51.246;6.850;2023-12-29T14:32:51;19.60;47.00
6986;DHT22;3533;51.246;6.850;2023-12-29T14:35:16;19.60;47.00
6986;DHT22;3533;51.246;6.850;2023-12-29T14:37:42;19.60;47.00
6986;DHT22;3533;51.246;6.850;2023-12-29T14:40:11;19.60;47.00
6986;DHT22;3533;51.246;6.850;2023-12-29T14:42:36;19.60;47.10
6986;DHT22;3533;51.246;6.850;2023-12-29T14:45:02;19.60;47.10
6986;DHT22;3533;51.246;6.850;2023-12-29T14:47:28;19.60;47.10
6986;DHT22;3533;51.246;6.850;2023-12-29T14:49:53;19.60;47.10
6986;DHT22;3533;51.246;6.850;2023-12-29T14:52:19;19.60;47.10
6986;DHT22;3533;51.246;6.850;2023-12-29T14:54:45;19.60;47.10
6986;DHT22;3533;51.246;6.850;2023-12-29T14:57:10;19.60;47.10
6986;DHT22;3533;51.246;6.850;2023-12-29T14:59:36;19.60;47.10
6986;DHT22;3533;51.246;6.850;2023-12-29T15:02:02;19.60;47.10
6986;DHT22;3533;51.246;6.850;2023-12-29T15:04:28;19.60;47.00
6986;DHT22;3533;51.246;6.850;2023-12-29T15:06:57;19.60;47.10
6986;DHT22;3533;51.246;6.850;2023-12-29T15:09:22;19.60;47.10
6986;DHT22;3533;51.246;6.850;2023-12-29T15:11:48;19.60;47.10
6986;DHT22;3533;51.246;6.850;2023-12-29T15:14:18;19.60;47.10
6986;DHT22;3533;51.246;6.850;2023-12-29T15:16:45;19.60;47.10
6986;DHT22;3533;51.246;6.850;2023-12-29T15:19:11;19.60;47.10
6986;DHT22;3533;51.246;6.850;2023-12-29T15:21:38;19.60;47.10
6986;DHT22;3533;51.246;6.850;2023-12-29T15:24:05;19.60;47.90
6986;DHT22;3533;51.246;6.850;2023-12-29T15:26:31;19.60;47.50
6986;DHT22;3533;51.246;6.850;2023-12-29T15:28:57;19.60;47.10
6986;DHT22;3533;51.246;6.850;2023-12-29T15:31:23;19.60;47.10
6986;DHT22;3533;51.246;6.850;2023-12-29T15:33:52;19.60;47.10
6986;DHT22;3533;51.246;6.850;2023-12-29T15:36:18;19.60;47.10
6986;DHT22;3533;51.246;6.850;2023-12-29T15:38:51;19.60;47.10
6986;DHT22;3533;51.246;6.850;2023-12-29T15:41:17;19.60;47.10
6986;DHT22;3533;51.246;6.850;2023-12-29T15:43:43;19.60;47.10
6986;DHT22;3533;51.246;6.850;2023-12-29T15:46:16;19.60;47.10
6986;DHT22;3533;51.246;6.850;2023-12-29T15:48:43;19.60;47.10
6986;DHT22;3533;51.246;6.850;2023-12-29T15:51:09;19.60;47.10
6986;DHT22;3533;51.246;6.850;2023-12-29T15:53:35;19.60;47.10
6986;DHT22;3533;51.246;6.850;2023-12-29T15:56:01;19.60;47.10
6986;DHT22;3533;51.246;6.850;2023-12-29T15:58:30;19.60;47.10
6986;DHT22;3533;51.246;6.850;2023-12-29T16:00:56;19.60;47.10
6986;DHT22;3533;51.246;6.850;2023-12-29T16:03:22;19.60;47.10
6986;DHT22;3533;51.246;6.850;2023-12-29T16:05:48;19.60;47.10
6986;DHT22;3533;51.246;6.850;2023-12-29T16:08:13;19.60;47.10
6986;DHT22;3533;51.246;6.850;2023-12-29T16:10:40;19.60;47.10
6986;DHT22;3533;51.246;6.850;2023-12-29T16:13:06;19.60;47.10
6986;DHT22;3533;51.246;6.850;2023-12-29T16:15:32;19.60;47.10
6986;DHT22;3533;51.246;6.850;2023-12-29T16:17:57;19.60;47.10
6986;DHT22;3533;51.246;6.850;2023-12-29T16:20:25;19.60;47.10
6986;DHT22;3533;51.246;6.850;2023-12-29T16:22:51;19.70;47.20
6986;DHT22;3533;51.246;6.850;2023-12-29T16:25:17;19.60;47.10
6986;DHT22;3533;51.246;6.850;2023-12-29T16:27:43;19.60;47.10
6986;DHT22;3533;51.246;6.850;2023-12-29T16:30:10;19.60;47.10